createdAt,value
2019-03-29T00:08:29.334Z,99615.05
2019-03-29T00:11:18.227Z,99617.63
2019-03-29T00:13:59.885Z,99612.82
2019-03-29T00:16:48.751Z,99617.89
2019-03-29T00:19:37.624Z,99619.11
2019-03-29T00:22:26.473Z,99618.73
2019-03-29T00:25:15.271Z,99613.59
2019-03-29T00:28:04.098Z,99612.68
2019-03-29T00:30:52.904Z,99610.84
2019-03-29T00:33:41.735Z,99608.74
2019-03-29T00:36:30.532Z,99605.34
2019-03-29T00:39:19.345Z,99388.17
2019-03-29T00:42:08.169Z,99602.80
2019-03-29T00:48:04.731Z,99597.53
2019-03-29T00:50:53.529Z,99600.87
2019-03-29T00:53:42.341Z,99599.30
2019-03-29T00:56:31.147Z,99595.02
2019-03-29T00:59:19.978Z,99596.33
2019-03-29T01:02:08.785Z,99589.03
2019-03-29T01:04:57.605Z,99590.27
2019-03-29T01:07:46.426Z,99377.59
2019-03-29T01:10:35.219Z,99570.34
2019-03-29T01:13:17.150Z,99572.00
2019-03-29T01:16:05.965Z,99570.41
2019-03-29T01:18:54.768Z,99350.98
2019-03-29T01:21:43.606Z,99568.61
2019-03-29T01:24:32.401Z,99371.43
2019-03-29T01:27:21.217Z,99567.45
2019-03-29T01:30:10.293Z,99570.54
2019-03-29T01:32:59.231Z,99571.05
2019-03-29T01:35:49.715Z,99339.59
2019-03-29T01:38:38.526Z,99563.50
2019-03-29T01:41:27.375Z,99558.36
2019-03-29T01:44:16.148Z,99422.70
2019-03-29T01:47:05.304Z,99556.94
2019-03-29T01:49:54.110Z,99560.54
2019-03-29T01:52:42.937Z,99556.74
2019-03-29T01:55:31.734Z,99555.95
2019-03-29T01:58:20.551Z,99546.49
2019-03-29T02:01:09.356Z,99546.05
2019-03-29T02:03:58.203Z,99545.31
2019-03-29T02:06:47.023Z,99545.41
2019-03-29T02:09:35.849Z,99538.03
2019-03-29T02:12:24.648Z,99538.63
2019-03-29T02:15:09.527Z,99276.94
2019-03-29T02:17:58.349Z,99536.59
2019-03-29T02:20:47.143Z,99533.91
2019-03-29T02:23:35.940Z,99325.60
2019-03-29T02:26:24.778Z,99531.39
2019-03-29T02:29:13.587Z,99524.41
2019-03-29T02:32:02.419Z,99524.42
2019-03-29T02:34:51.252Z,99386.05
2019-03-29T02:37:40.046Z,99523.82
2019-03-29T02:40:28.874Z,99524.36
2019-03-29T02:43:17.681Z,99507.44
2019-03-29T02:46:06.490Z,99276.95
2019-03-29T02:48:55.298Z,99523.19
2019-03-29T02:51:44.384Z,99517.80
2019-03-29T02:54:33.189Z,99517.81
2019-03-29T02:57:22.032Z,99514.39
2019-03-29T03:03:25.932Z,99512.54
2019-03-29T03:06:33.914Z,99228.59
2019-03-29T03:09:22.708Z,99503.73
2019-03-29T03:12:02.509Z,99403.35
2019-03-29T03:14:51.321Z,99508.84
2019-03-29T03:17:59.135Z,99508.77
2019-03-29T03:20:48.023Z,99502.14
2019-03-29T03:23:36.825Z,99505.23
2019-03-29T03:26:25.642Z,99506.70
2019-03-29T03:29:14.429Z,99505.74
2019-03-29T03:32:03.366Z,99400.12
2019-03-29T03:37:41.665Z,99510.66
2019-03-29T03:40:30.478Z,99290.63
2019-03-29T03:43:19.275Z,99509.48
2019-03-29T03:46:08.097Z,99510.38
2019-03-29T03:48:56.916Z,99505.81
2019-03-29T03:51:45.726Z,99502.66
2019-03-29T03:57:28.637Z,99498.66
2019-03-29T04:00:40.083Z,99493.23
2019-03-29T04:03:28.956Z,99504.88
2019-03-29T04:06:17.760Z,99505.84
2019-03-29T04:09:06.991Z,99502.24
2019-03-29T04:11:48.228Z,99505.14
2019-03-29T04:14:37.033Z,99341.52
2019-03-29T04:17:25.866Z,99513.59
2019-03-29T04:20:14.672Z,99267.48
2019-03-29T04:23:03.490Z,99510.22
2019-03-29T04:25:52.284Z,99247.11
2019-03-29T04:28:41.147Z,99510.13
2019-03-29T04:31:29.923Z,99508.23
2019-03-29T04:34:18.742Z,99507.59
2019-03-29T04:37:07.543Z,99502.45
2019-03-29T04:40:06.883Z,99503.13
2019-03-29T04:42:46.872Z,99504.67
2019-03-29T04:45:35.678Z,99501.83
2019-03-29T04:48:24.502Z,99248.48
2019-03-29T04:51:13.296Z,99386.58
2019-03-29T04:54:02.120Z,99495.55
2019-03-29T04:56:50.922Z,99494.39
2019-03-29T04:59:39.724Z,99496.21
2019-03-29T05:02:28.543Z,99497.94
2019-03-29T05:05:17.424Z,99497.75
2019-03-29T05:08:06.224Z,99498.64
2019-03-29T05:10:55.776Z,99503.55
2019-03-29T05:13:37.443Z,99405.78
2019-03-29T05:16:26.262Z,99500.92
2019-03-29T05:19:15.058Z,99500.47
2019-03-29T05:22:03.874Z,99501.78
2019-03-29T05:24:52.669Z,99500.66
2019-03-29T05:27:41.487Z,99499.38
2019-03-29T05:30:30.284Z,99497.37
2019-03-29T05:36:34.011Z,99479.34
2019-03-29T05:39:22.803Z,99498.16
2019-03-29T05:42:11.615Z,99502.20
2019-03-29T05:45:00.451Z,99499.81
2019-03-29T05:47:49.228Z,99500.36
2019-03-29T05:50:38.045Z,99499.95
2019-03-29T05:53:26.842Z,99500.13
2019-03-29T05:56:15.669Z,99498.00
2019-03-29T05:59:04.536Z,99497.99
2019-03-29T06:01:53.344Z,99497.66
2019-03-29T06:04:42.142Z,99504.19
2019-03-29T06:07:30.963Z,99507.53
2019-03-29T06:10:19.799Z,99508.75
2019-03-29T06:13:08.595Z,99507.36
2019-03-29T06:15:49.993Z,99507.28
2019-03-29T06:18:38.787Z,99513.94
2019-03-29T06:21:27.600Z,99502.19
2019-03-29T06:24:16.412Z,99506.20
2019-03-29T06:27:05.206Z,99493.71
2019-03-29T06:29:54.014Z,99501.91
2019-03-29T06:32:42.811Z,99248.01
2019-03-29T06:35:52.546Z,99486.11
2019-03-29T06:39:02.266Z,99485.08
2019-03-29T06:41:51.131Z,99485.97
2019-03-29T06:44:39.965Z,99488.67
2019-03-29T06:47:28.777Z,99488.39
2019-03-29T06:50:17.574Z,99488.49
2019-03-29T06:53:06.398Z,99275.08
2019-03-29T06:55:59.218Z,99479.71
2019-03-29T06:58:46.461Z,99212.57
2019-03-29T07:01:35.258Z,99407.28
2019-03-29T07:04:43.091Z,99478.21
2019-03-29T07:07:31.906Z,99482.84
2019-03-29T07:10:39.751Z,99478.97
2019-03-29T07:13:28.583Z,99479.73
2019-03-29T07:16:10.406Z,99485.52
2019-03-29T07:19:18.248Z,99480.14
2019-03-29T07:22:07.155Z,99485.98
2019-03-29T07:24:55.963Z,99476.42
2019-03-29T07:27:51.884Z,99480.16
2019-03-29T07:30:35.313Z,99482.87
2019-03-29T07:33:24.129Z,99477.15
2019-03-29T07:39:08.414Z,99473.22
2019-03-29T07:41:57.217Z,99475.05
2019-03-29T07:44:46.032Z,99471.73
2019-03-29T07:47:34.829Z,99473.59
2019-03-29T07:50:23.644Z,99474.13
2019-03-29T07:53:12.501Z,99221.75
2019-03-29T07:56:01.327Z,99474.38
2019-03-29T07:58:50.130Z,99474.47
2019-03-29T08:01:38.953Z,99467.23
2019-03-29T08:04:27.752Z,99467.66
2019-03-29T08:07:26.602Z,99463.04
2019-03-29T08:10:07.274Z,99462.73
2019-03-29T08:12:56.106Z,99463.61
2019-03-29T08:15:45.178Z,99458.13
2019-03-29T08:18:27.040Z,99460.81
2019-03-29T08:27:17.505Z,99454.03
2019-03-29T08:33:21.575Z,99453.30
2019-03-29T08:36:10.388Z,99449.85
2019-03-29T08:38:59.224Z,99449.00
2019-03-29T08:41:59.521Z,99233.59
2019-03-29T08:44:38.601Z,99444.64
2019-03-29T08:47:27.421Z,99252.92
2019-03-29T08:50:35.316Z,99302.34
2019-03-29T08:53:27.316Z,99451.45
2019-03-29T08:56:14.760Z,99442.39
2019-03-29T08:59:03.579Z,99447.02
2019-03-29T09:01:52.399Z,99439.75
2019-03-29T09:04:41.222Z,99321.47
2019-03-29T09:07:50.955Z,99434.45
2019-03-29T09:10:39.859Z,99373.67
2019-03-29T09:13:28.658Z,99428.87
2019-03-29T09:16:10.123Z,99426.22
2019-03-29T09:18:58.924Z,99425.22
2019-03-29T09:21:47.827Z,99418.16
2019-03-29T09:24:36.962Z,99206.16
2019-03-29T09:27:25.763Z,99409.84
2019-03-29T09:30:14.761Z,99329.75
2019-03-29T09:33:03.571Z,99404.77
2019-03-29T09:35:52.394Z,99399.20
2019-03-29T09:38:43.691Z,99400.25
2019-03-29T09:41:31.753Z,99260.42
2019-03-29T09:44:20.588Z,99397.69
2019-03-29T09:47:09.427Z,99209.44
2019-03-29T09:49:58.219Z,99388.30
2019-03-29T09:52:47.047Z,99387.02
2019-03-29T09:55:35.856Z,99206.52
2019-03-29T09:58:24.677Z,99394.01
2019-03-29T10:01:13.515Z,99360.23
2019-03-29T10:04:02.303Z,99378.92
2019-03-29T10:06:51.352Z,99381.48
2019-03-29T10:09:40.147Z,99175.67
2019-03-29T10:12:42.271Z,99369.85
2019-03-29T10:15:19.516Z,99160.91
2019-03-29T10:18:00.930Z,99360.03
2019-03-29T10:20:49.680Z,99363.03
2019-03-29T10:26:52.303Z,99353.59
2019-03-29T10:29:41.127Z,99346.00
2019-03-29T10:32:29.949Z,99346.45
2019-03-29T10:35:18.756Z,99343.27
2019-03-29T10:38:07.577Z,99341.44
2019-03-29T10:40:56.418Z,99336.16
2019-03-29T10:43:45.221Z,99336.95
2019-03-29T10:46:53.062Z,99339.50
2019-03-29T10:49:41.871Z,99331.48
2019-03-29T10:52:30.693Z,99327.60
2019-03-29T10:55:19.499Z,99323.25
2019-03-29T10:58:09.841Z,99315.53
2019-03-29T11:00:58.874Z,99326.11
2019-03-29T11:03:47.685Z,99299.37
2019-03-29T11:09:44.329Z,99137.32
2019-03-29T11:12:33.121Z,99210.55
2019-03-29T11:15:21.942Z,99306.84
2019-03-29T11:18:03.371Z,99297.02
2019-03-29T11:21:11.234Z,99306.81
2019-03-29T11:24:09.087Z,99280.86
2019-03-29T11:26:57.975Z,99278.80
2019-03-29T11:33:15.384Z,99166.55
2019-03-29T11:36:04.291Z,99086.30
2019-03-29T11:38:53.322Z,99261.41
2019-03-29T11:41:42.576Z,99089.27
2019-03-29T11:44:31.624Z,99256.19
2019-03-29T11:47:20.441Z,99260.05
2019-03-29T11:50:09.338Z,99257.47
2019-03-29T11:52:58.129Z,99096.66
2019-03-29T11:55:46.951Z,99247.02
2019-03-29T11:58:35.781Z,99098.59
2019-03-29T12:01:24.609Z,99241.27
2019-03-29T12:04:13.405Z,99133.02
2019-03-29T12:07:03.690Z,99233.94
2019-03-29T12:09:52.751Z,99041.34
2019-03-29T12:12:41.571Z,99227.84
2019-03-29T12:15:30.386Z,99231.90
2019-03-29T12:18:12.358Z,99227.02
2019-03-29T12:21:01.186Z,99223.58
2019-03-29T12:23:49.984Z,99164.51
2019-03-29T12:26:38.936Z,99030.67
2019-03-29T12:29:27.816Z,99216.35
2019-03-29T12:32:16.655Z,99213.69
2019-03-29T12:35:26.505Z,99201.33
2019-03-29T12:38:15.300Z,99201.97
2019-03-29T12:41:04.197Z,99201.13
2019-03-29T12:43:55.962Z,99203.38
2019-03-29T12:46:43.589Z,99198.66
2019-03-29T12:49:32.418Z,99191.55
2019-03-29T12:52:21.213Z,99089.87
2019-03-29T12:55:10.171Z,99044.11
2019-03-29T12:57:58.995Z,99032.69
2019-03-29T13:00:47.824Z,99184.66
2019-03-29T13:03:36.642Z,99178.91
2019-03-29T13:06:25.475Z,99172.88
2019-03-29T13:09:14.289Z,99169.09
2019-03-29T13:12:03.115Z,99145.94
2019-03-29T13:14:51.932Z,99154.70
2019-03-29T13:17:33.510Z,99152.24
2019-03-29T13:20:22.330Z,99023.23
2019-03-29T13:23:11.137Z,99146.05
2019-03-29T13:25:59.962Z,98984.81
2019-03-29T13:28:48.769Z,99132.73
2019-03-29T13:31:37.596Z,99124.61
2019-03-29T13:34:26.406Z,99123.19
2019-03-29T13:37:15.226Z,99116.77
2019-03-29T13:40:24.092Z,98942.46
2019-03-29T13:43:12.950Z,99109.55
2019-03-29T13:46:01.752Z,99106.91
2019-03-29T13:48:50.578Z,98971.15
2019-03-29T13:51:39.373Z,99102.52
2019-03-29T13:54:28.203Z,99100.54
2019-03-29T13:57:17.077Z,99099.42
2019-03-29T14:00:26.932Z,99086.23
2019-03-29T14:03:15.790Z,99083.64
2019-03-29T14:06:04.850Z,99079.63
2019-03-29T14:08:53.689Z,99075.02
2019-03-29T14:11:42.562Z,99067.80
2019-03-29T14:14:38.135Z,98911.05
2019-03-29T14:17:15.078Z,99062.19
2019-03-29T14:23:32.328Z,99065.31
2019-03-29T14:26:21.137Z,99059.95
2019-03-29T14:29:28.980Z,99051.59
2019-03-29T14:32:17.781Z,99053.14
2019-03-29T14:35:27.508Z,99042.97
2019-03-29T14:38:16.337Z,99050.97
2019-03-29T14:41:05.128Z,99041.50
2019-03-29T14:43:53.963Z,99038.03
2019-03-29T14:46:42.775Z,99045.62
2019-03-29T14:49:31.597Z,99044.20
2019-03-29T14:52:20.411Z,98850.06
2019-03-29T14:55:09.472Z,99035.62
2019-03-29T14:57:50.913Z,98886.27
2019-03-29T15:01:00.654Z,98866.84
2019-03-29T15:03:49.513Z,98964.66
2019-03-29T15:06:38.354Z,99022.56
2019-03-29T15:09:27.160Z,98847.95
2019-03-29T15:12:15.996Z,99016.11
2019-03-29T15:15:26.099Z,98906.05
2019-03-29T15:18:14.909Z,99006.22
2019-03-29T15:21:04.016Z,98988.49
2019-03-29T15:23:52.827Z,98992.58
2019-03-29T15:26:41.653Z,98916.03
2019-03-29T15:29:30.450Z,98986.87
2019-03-29T15:32:19.278Z,98985.25
2019-03-29T15:35:27.241Z,98969.34
2019-03-29T15:38:16.065Z,98973.67
2019-03-29T15:41:04.872Z,98975.58
2019-03-29T15:46:47.728Z,98855.61
2019-03-29T15:49:36.560Z,98954.45
2019-03-29T15:52:25.388Z,98955.54
2019-03-29T15:55:14.214Z,98815.01
2019-03-29T15:58:03.044Z,98959.65
2019-03-29T16:00:51.858Z,98930.88
2019-03-29T16:03:40.666Z,98952.76
2019-03-29T16:06:29.476Z,98945.34
2019-03-29T16:09:18.292Z,98944.22
2019-03-29T16:12:07.097Z,98938.39
2019-03-29T16:14:55.917Z,98939.74
2019-03-29T16:17:44.741Z,98942.44
2019-03-29T16:20:33.550Z,98939.34
2019-03-29T16:23:22.367Z,98935.56
2019-03-29T16:26:11.182Z,98939.88
2019-03-29T16:29:00.067Z,98888.64
2019-03-29T16:31:48.894Z,98939.42
2019-03-29T16:34:37.771Z,98937.38
2019-03-29T16:37:26.619Z,98939.30
2019-03-29T16:40:15.559Z,98933.36
2019-03-29T16:43:04.426Z,98934.30
2019-03-29T16:49:01.098Z,98932.92
2019-03-29T16:51:49.931Z,98925.28
2019-03-29T16:54:38.828Z,98931.23
2019-03-29T16:57:20.551Z,98924.84
2019-03-29T17:00:30.318Z,98925.48
2019-03-29T17:03:19.216Z,98927.22
2019-03-29T17:06:08.110Z,98933.37
2019-03-29T17:08:56.910Z,98932.67
2019-03-29T17:11:45.863Z,98926.19
2019-03-29T17:14:34.726Z,98927.34
2019-03-29T17:17:23.577Z,98932.68
2019-03-29T17:20:32.601Z,98924.52
2019-03-29T17:23:21.458Z,98751.02
2019-03-29T17:26:10.357Z,98762.03
2019-03-29T17:28:59.173Z,98754.79
2019-03-29T17:31:47.976Z,98920.54
2019-03-29T17:34:36.803Z,98916.76
2019-03-29T17:37:25.602Z,98915.86
2019-03-29T17:40:34.367Z,98915.36
2019-03-29T17:43:23.192Z,98920.27
2019-03-29T17:46:16.722Z,98925.39
2019-03-29T17:49:02.550Z,98923.95
2019-03-29T17:54:59.116Z,98922.19
2019-03-29T17:57:40.909Z,98918.21
2019-03-29T18:03:39.127Z,98927.32
2019-03-29T18:06:27.943Z,98836.36
2019-03-29T18:09:16.771Z,98690.91
2019-03-29T18:12:05.557Z,98932.28
2019-03-29T18:14:54.399Z,98692.08
2019-03-29T18:17:43.221Z,98935.94
2019-03-29T18:20:32.115Z,98937.09
2019-03-29T18:23:20.945Z,98739.63
2019-03-29T18:26:09.779Z,98936.56
2019-03-29T18:28:58.585Z,98939.45
2019-03-29T18:34:42.031Z,98938.39
2019-03-29T18:37:25.451Z,98938.95
2019-03-29T18:40:33.642Z,98935.84
2019-03-29T18:43:22.455Z,98811.91
2019-03-29T18:46:11.257Z,98937.03
2019-03-29T18:49:00.081Z,98936.67
2019-03-29T18:51:48.890Z,98855.99
2019-03-29T18:54:37.713Z,98938.12
2019-03-29T18:57:26.534Z,98694.88
2019-03-29T19:00:36.294Z,98939.52
2019-03-29T19:03:44.111Z,98941.54
2019-03-29T19:06:32.952Z,98937.62
2019-03-29T19:09:21.750Z,98938.52
2019-03-29T19:15:25.795Z,98944.41
2019-03-29T19:18:14.628Z,98939.78
2019-03-29T19:24:11.187Z,98935.91
2019-03-29T19:26:59.999Z,98935.05
2019-03-29T19:29:48.808Z,98935.11
2019-03-29T19:32:37.634Z,98930.61
2019-03-29T19:35:26.431Z,98934.43
2019-03-29T19:38:15.251Z,98934.42
2019-03-29T19:40:56.744Z,98929.38
2019-03-29T19:43:45.565Z,98930.23
2019-03-29T19:46:34.451Z,98929.07
2019-03-29T19:49:23.244Z,98924.83
2019-03-29T19:52:12.225Z,98926.61
2019-03-29T19:55:01.480Z,98924.28
2019-03-29T19:57:51.603Z,98918.77
2019-03-29T20:01:01.322Z,98922.16
2019-03-29T20:03:50.132Z,98689.91
2019-03-29T20:06:38.938Z,98918.89
2019-03-29T20:09:27.759Z,98917.15
2019-03-29T20:12:16.633Z,98917.98
2019-03-29T20:15:06.621Z,98918.50
2019-03-29T20:17:55.525Z,98916.35
2019-03-29T20:20:44.418Z,98914.73
2019-03-29T20:26:40.972Z,98916.77
2019-03-29T20:29:29.768Z,98921.56
2019-03-29T20:32:18.589Z,98919.86
2019-03-29T20:35:07.738Z,98914.28
2019-03-29T20:40:45.386Z,98913.86
2019-03-29T20:43:34.213Z,98914.72
2019-03-29T20:46:23.066Z,98911.70
2019-03-29T20:49:11.922Z,98688.55
2019-03-29T20:52:00.861Z,98915.62
2019-03-29T20:54:49.765Z,98847.91
2019-03-29T20:57:31.824Z,98913.48
2019-03-29T21:00:21.040Z,98841.06
2019-03-29T21:03:09.890Z,98910.47
2019-03-29T21:05:58.800Z,98738.19
2019-03-29T21:08:47.623Z,98708.56
2019-03-29T21:11:36.467Z,98909.58
2019-03-29T21:14:25.306Z,98912.44
2019-03-29T21:16:54.826Z,98901.34
2019-03-29T21:19:43.756Z,98902.50
2019-03-29T21:22:32.647Z,98646.14
2019-03-29T21:25:21.522Z,98698.00
2019-03-29T21:28:29.386Z,98901.63
2019-03-29T21:31:18.262Z,98900.75
2019-03-29T21:34:07.070Z,98901.58
2019-03-29T21:36:55.945Z,98658.90
2019-03-29T21:39:44.807Z,98902.41
2019-03-29T21:42:33.687Z,98907.11
2019-03-29T21:45:28.457Z,98905.88
2019-03-29T21:48:27.973Z,98726.63
2019-03-29T21:51:03.880Z,98899.37
2019-03-29T21:53:52.760Z,98901.86
2019-03-29T21:56:41.607Z,98659.61
2019-03-29T21:59:30.435Z,98795.42
2019-03-29T22:02:21.510Z,98905.27
2019-03-29T22:05:10.517Z,98771.46
2019-03-29T22:08:00.522Z,98904.53
2019-03-29T22:10:49.380Z,98897.95
2019-03-29T22:13:38.282Z,98894.06
2019-03-29T22:22:29.591Z,98885.13
2019-03-29T22:25:18.548Z,98884.73
2019-03-29T22:28:07.396Z,98888.05
2019-03-29T22:30:56.277Z,98888.94
2019-03-29T22:33:45.111Z,98803.43
2019-03-29T22:36:33.922Z,98875.61
2019-03-29T22:39:22.721Z,98876.86
2019-03-29T22:42:03.931Z,98872.16
2019-03-29T22:44:52.729Z,98689.34
2019-03-29T22:47:41.546Z,98621.77
2019-03-29T22:50:30.345Z,98862.89
2019-03-29T22:53:19.165Z,98865.98
2019-03-29T22:56:07.986Z,98868.61
2019-03-29T22:58:49.666Z,98865.16
2019-03-29T23:01:59.402Z,98852.68
2019-03-29T23:04:48.192Z,98746.23
2019-03-29T23:07:37.003Z,98852.81
2019-03-29T23:10:25.804Z,98852.98
2019-03-29T23:13:14.617Z,98851.23
2019-03-29T23:16:03.410Z,98844.55
2019-03-29T23:19:05.505Z,98845.09
2019-03-29T23:21:42.749Z,98838.89
2019-03-29T23:24:31.569Z,98836.17
2019-03-29T23:27:20.384Z,98836.22
2019-03-29T23:30:09.535Z,98830.39
2019-03-29T23:32:58.353Z,98824.37
2019-03-29T23:35:47.206Z,98821.64
2019-03-29T23:38:36.038Z,98821.39
2019-03-29T23:41:17.979Z,98812.18
2019-03-29T23:44:06.845Z,98814.64
2019-03-29T23:46:55.665Z,98810.33
2019-03-29T23:49:44.463Z,98811.48
2019-03-29T23:52:33.275Z,98810.45
2019-03-29T23:55:22.064Z,98809.73
2019-03-29T23:58:10.887Z,98804.78
